createdAt,value
2018-11-04T00:01:12.885Z,90.40
2018-11-04T00:03:42.422Z,89.95
2018-11-04T00:06:10.940Z,89.69
2018-11-04T00:08:39.655Z,89.99
2018-11-04T00:11:08.180Z,90.15
2018-11-04T00:13:37.506Z,89.67
2018-11-04T00:16:05.975Z,90.08
2018-11-04T00:18:34.688Z,90.46
2018-11-04T00:21:04.051Z,90.10
2018-11-04T00:23:32.559Z,90.31
2018-11-04T00:26:01.031Z,89.53
2018-11-04T00:28:29.696Z,89.53
2018-11-04T00:30:58.627Z,88.58
2018-11-04T00:33:27.915Z,88.60
2018-11-04T00:35:56.794Z,88.58
2018-11-04T00:38:25.391Z,88.24
2018-11-04T00:40:56.193Z,88.68
2018-11-04T00:43:25.393Z,88.62
2018-11-04T00:45:54.167Z,88.60
2018-11-04T00:48:22.796Z,88.75
2018-11-04T00:50:51.508Z,89.29
2018-11-04T00:53:20.143Z,89.05
2018-11-04T00:55:55.703Z,88.82
2018-11-04T00:58:25.546Z,88.98
2018-11-04T01:00:54.319Z,89.18
2018-11-04T01:03:22.911Z,89.11
2018-11-04T01:05:51.654Z,89.52
2018-11-04T01:08:20.155Z,89.19
2018-11-04T01:10:48.990Z,89.36
2018-11-04T01:13:17.470Z,89.36
2018-11-04T01:15:46.094Z,89.78
2018-11-04T01:18:14.766Z,89.45
2018-11-04T01:20:43.393Z,89.57
2018-11-04T01:23:12.155Z,89.12
2018-11-04T01:25:40.734Z,89.73
2018-11-04T01:28:09.885Z,89.35
2018-11-04T01:30:38.401Z,89.29
2018-11-04T01:33:07.251Z,89.29
2018-11-04T01:35:35.766Z,89.12
2018-11-04T01:38:04.500Z,89.59
2018-11-04T01:40:33.075Z,89.78
2018-11-04T01:43:01.535Z,89.50
2018-11-04T01:45:30.304Z,88.85
2018-11-04T01:47:58.868Z,88.83
2018-11-04T01:50:27.627Z,88.45
2018-11-04T01:52:56.071Z,88.70
2018-11-04T01:55:24.687Z,88.42
2018-11-04T01:57:53.155Z,88.42
2018-11-04T02:00:21.653Z,88.54
2018-11-04T02:02:50.355Z,88.41
2018-11-04T02:05:18.798Z,88.60
2018-11-04T02:07:47.441Z,88.31
2018-11-04T02:10:16.203Z,88.82
2018-11-04T02:12:44.879Z,89.13
2018-11-04T02:15:13.983Z,89.22
2018-11-04T02:17:42.543Z,88.94
2018-11-04T02:20:12.347Z,88.65
2018-11-04T02:22:41.345Z,88.60
2018-11-04T02:25:11.370Z,88.65
2018-11-04T02:27:40.249Z,88.63
2018-11-04T02:30:11.326Z,88.52
2018-11-04T02:32:40.155Z,88.53
2018-11-04T02:35:08.867Z,88.37
2018-11-04T02:37:37.506Z,88.71
2018-11-04T02:40:06.507Z,88.88
2018-11-04T02:42:36.043Z,88.95
2018-11-04T02:45:04.897Z,89.29
2018-11-04T02:47:33.369Z,89.35
2018-11-04T02:50:02.011Z,89.99
2018-11-04T02:52:30.502Z,90.32
2018-11-04T02:54:59.137Z,90.79
2018-11-04T02:57:28.067Z,91.22
2018-11-04T02:59:56.601Z,91.28
2018-11-04T03:02:25.388Z,91.45
2018-11-04T03:04:53.851Z,91.66
2018-11-04T03:07:22.576Z,91.54
2018-11-04T03:09:51.039Z,91.38
2018-11-04T03:12:19.543Z,91.35
2018-11-04T03:14:48.093Z,91.71
2018-11-04T03:17:16.582Z,91.68
2018-11-04T03:19:45.402Z,91.73
2018-11-04T03:22:13.962Z,91.73
2018-11-04T03:24:42.813Z,91.45
2018-11-04T03:27:11.208Z,91.45
2018-11-04T03:29:39.719Z,91.83
2018-11-04T03:32:08.351Z,91.68
2018-11-04T03:34:36.878Z,91.75
2018-11-04T03:37:06.071Z,91.88
2018-11-04T03:39:34.569Z,91.64
2018-11-04T03:42:03.221Z,91.77
2018-11-04T03:44:31.750Z,91.28
2018-11-04T03:47:00.570Z,91.65
2018-11-04T03:49:29.081Z,91.62
2018-11-04T03:51:57.683Z,91.68
2018-11-04T03:54:26.304Z,91.20
2018-11-04T03:56:54.763Z,91.57
2018-11-04T03:59:23.577Z,91.10
2018-11-04T04:01:52.102Z,91.44
2018-11-04T04:04:20.922Z,90.76
2018-11-04T04:06:49.472Z,90.80
2018-11-04T04:09:18.067Z,91.07
2018-11-04T04:11:46.728Z,90.90
2018-11-04T04:14:15.251Z,91.09
2018-11-04T04:16:44.015Z,90.92
2018-11-04T04:19:12.579Z,90.59
2018-11-04T04:21:41.414Z,91.05
2018-11-04T04:24:09.867Z,91.22
2018-11-04T04:26:38.473Z,91.21
2018-11-04T04:29:07.116Z,91.42
2018-11-04T04:31:35.651Z,91.40
2018-11-04T04:34:04.486Z,91.25
2018-11-04T04:36:32.930Z,91.02
2018-11-04T04:39:01.657Z,90.93
2018-11-04T04:41:30.132Z,91.37
2018-11-04T04:43:58.652Z,91.76
2018-11-04T04:46:27.215Z,91.16
2018-11-04T04:48:55.671Z,91.22
2018-11-04T04:51:24.479Z,90.96
2018-11-04T04:53:53.046Z,90.80
2018-11-04T04:56:21.747Z,91.13
2018-11-04T04:58:51.030Z,91.40
2018-11-04T05:01:19.719Z,91.38
2018-11-04T05:03:48.198Z,91.42
2018-11-04T05:06:16.815Z,91.11
2018-11-04T05:08:45.467Z,90.99
2018-11-04T05:11:13.983Z,91.08
2018-11-04T05:13:42.584Z,91.08
2018-11-04T05:16:11.104Z,91.71
2018-11-04T05:18:39.764Z,91.39
2018-11-04T05:21:08.279Z,91.31
2018-11-04T05:23:39.691Z,91.70
2018-11-04T05:26:17.650Z,91.46
2018-11-04T05:28:48.100Z,91.44
2018-11-04T05:31:17.664Z,92.12
2018-11-04T05:33:46.391Z,92.04
2018-11-04T05:36:15.033Z,92.70
2018-11-04T05:38:43.472Z,92.08
2018-11-04T05:41:12.747Z,92.73
2018-11-04T05:43:41.267Z,92.79
2018-11-04T05:46:10.127Z,92.75
2018-11-04T05:48:38.656Z,93.04
2018-11-04T05:51:07.303Z,93.06
2018-11-04T05:53:39.203Z,93.52
2018-11-04T05:56:09.424Z,94.05
2018-11-04T05:58:38.076Z,94.23
2018-11-04T06:01:07.395Z,94.20
2018-11-04T06:03:36.042Z,94.59
2018-11-04T06:06:04.763Z,94.66
2018-11-04T06:08:35.519Z,94.21
2018-11-04T06:11:05.526Z,94.25
2018-11-04T06:13:33.974Z,95.37
2018-11-04T06:16:02.542Z,95.68
2018-11-04T06:18:31.003Z,95.18
2018-11-04T06:20:59.571Z,96.15
2018-11-04T06:23:28.330Z,95.97
2018-11-04T06:25:56.932Z,96.60
2018-11-04T06:28:25.740Z,96.80
2018-11-04T06:30:54.197Z,97.07
2018-11-04T06:33:22.752Z,96.51
2018-11-04T06:35:51.260Z,96.79
2018-11-04T06:38:19.723Z,96.65
2018-11-04T06:40:48.490Z,96.95
2018-11-04T06:43:17.009Z,96.88
2018-11-04T06:45:45.610Z,96.83
2018-11-04T06:48:14.125Z,97.08
2018-11-04T06:50:42.631Z,97.42
2018-11-04T06:53:11.119Z,97.82
2018-11-04T06:55:39.718Z,97.44
2018-11-04T06:58:08.447Z,97.03
2018-11-04T07:00:36.929Z,97.64
2018-11-04T07:03:05.660Z,97.32
2018-11-04T07:05:34.139Z,96.91
2018-11-04T07:08:02.788Z,96.97
2018-11-04T07:10:31.244Z,96.50
2018-11-04T07:12:59.823Z,96.70
2018-11-04T07:15:29.098Z,96.23
2018-11-04T07:17:57.643Z,95.75
2018-11-04T07:20:26.462Z,95.19
2018-11-04T07:22:55.190Z,95.18
2018-11-04T07:25:23.828Z,95.26
2018-11-04T07:27:52.324Z,95.24
2018-11-04T07:30:20.828Z,95.00
2018-11-04T07:32:49.450Z,94.66
2018-11-04T07:35:17.964Z,94.74
2018-11-04T07:37:46.644Z,94.67
2018-11-04T07:40:15.151Z,94.72
2018-11-04T07:42:43.704Z,94.58
2018-11-04T07:45:12.201Z,94.80
2018-11-04T07:47:41.200Z,94.46
2018-11-04T07:50:12.672Z,94.15
2018-11-04T07:52:41.572Z,94.43
2018-11-04T07:55:10.620Z,94.14
2018-11-04T07:57:41.139Z,94.19
2018-11-04T08:00:12.823Z,94.10
2018-11-04T08:02:41.611Z,93.89
2018-11-04T08:05:11.250Z,94.17
2018-11-04T08:07:41.287Z,93.98
2018-11-04T08:10:12.417Z,93.73
2018-11-04T08:12:41.183Z,93.43
2018-11-04T08:15:10.537Z,93.45
2018-11-04T08:17:39.783Z,93.51
2018-11-04T08:20:09.170Z,93.30
2018-11-04T08:22:37.800Z,93.32
2018-11-04T08:25:06.794Z,93.14
2018-11-04T08:27:35.656Z,92.65
2018-11-04T08:30:04.467Z,93.05
2018-11-04T08:32:33.111Z,92.35
2018-11-04T08:35:01.583Z,92.35
2018-11-04T08:37:30.131Z,91.60
2018-11-04T08:39:59.163Z,91.57
2018-11-04T08:42:27.539Z,91.90
2018-11-04T08:44:56.339Z,91.65
2018-11-04T08:47:24.806Z,91.18
2018-11-04T08:49:53.553Z,91.39
2018-11-04T08:52:22.165Z,91.26
2018-11-04T08:54:50.641Z,91.11
2018-11-04T08:57:19.123Z,90.51
2018-11-04T08:59:47.669Z,90.68
2018-11-04T09:02:16.510Z,90.56
2018-11-04T09:04:44.978Z,89.87
2018-11-04T09:07:13.629Z,89.60
2018-11-04T09:09:42.319Z,89.55
2018-11-04T09:12:10.883Z,88.92
2018-11-04T09:14:39.451Z,89.30
2018-11-04T09:17:08.524Z,89.16
2018-11-04T09:19:37.288Z,88.90
2018-11-04T09:22:06.598Z,88.91
2018-11-04T09:24:35.040Z,88.87
2018-11-04T09:27:03.753Z,88.37
2018-11-04T09:29:32.452Z,88.74
2018-11-04T09:32:01.062Z,88.22
2018-11-04T09:34:29.667Z,88.39
2018-11-04T09:36:58.319Z,88.48
2018-11-04T09:39:26.987Z,87.98
2018-11-04T09:41:55.719Z,87.98
2018-11-04T09:44:24.300Z,88.09
2018-11-04T09:46:53.126Z,87.36
2018-11-04T09:49:21.655Z,87.57
2018-11-04T09:51:50.270Z,87.43
2018-11-04T09:54:18.881Z,87.65
2018-11-04T09:56:47.464Z,87.13
2018-11-04T09:59:16.355Z,87.01
2018-11-04T10:01:45.045Z,86.96
2018-11-04T10:04:13.850Z,86.61
2018-11-04T10:06:42.409Z,86.95
2018-11-04T10:09:11.719Z,86.72
2018-11-04T10:11:40.602Z,86.47
2018-11-04T10:14:09.170Z,86.80
2018-11-04T10:16:38.107Z,86.67
2018-11-04T10:19:06.796Z,85.98
2018-11-04T10:21:35.471Z,85.47
2018-11-04T10:24:03.991Z,85.39
2018-11-04T10:26:32.871Z,86.01
2018-11-04T10:29:01.470Z,86.29
2018-11-04T10:31:30.191Z,86.25
2018-11-04T10:33:58.768Z,86.22
2018-11-04T10:36:27.267Z,86.17
2018-11-04T10:38:56.044Z,86.27
2018-11-04T10:41:24.646Z,86.21
2018-11-04T10:43:53.461Z,85.58
2018-11-04T10:46:22.035Z,85.36
2018-11-04T10:48:50.648Z,85.75
2018-11-04T10:51:19.282Z,84.71
2018-11-04T10:53:47.872Z,84.29
2018-11-04T10:56:16.451Z,84.02
2018-11-04T10:58:45.052Z,84.33
2018-11-04T11:01:13.719Z,83.72
2018-11-04T11:03:42.214Z,84.40
2018-11-04T11:06:10.916Z,83.87
2018-11-04T11:08:39.395Z,84.33
2018-11-04T11:11:08.051Z,83.22
2018-11-04T11:13:36.657Z,83.66
2018-11-04T11:16:05.352Z,83.17
2018-11-04T11:18:33.958Z,83.05
2018-11-04T11:21:02.559Z,82.20
2018-11-04T11:23:31.358Z,82.68
2018-11-04T11:25:59.954Z,82.13
2018-11-04T11:28:28.690Z,81.83
2018-11-04T11:30:57.287Z,80.55
2018-11-04T11:33:25.806Z,81.32
2018-11-04T11:35:54.307Z,80.59
2018-11-04T11:38:22.802Z,81.76
2018-11-04T11:40:51.758Z,80.88
2018-11-04T11:43:20.267Z,80.97
2018-11-04T11:45:49.029Z,81.26
2018-11-04T11:48:17.871Z,80.88
2018-11-04T11:50:46.403Z,81.59
2018-11-04T11:53:15.011Z,81.71
2018-11-04T11:55:43.518Z,80.52
2018-11-04T11:58:12.323Z,81.57
2018-11-04T12:00:40.805Z,81.27
2018-11-04T12:03:09.451Z,81.66
2018-11-04T12:05:37.971Z,81.82
2018-11-04T12:08:06.628Z,81.72
2018-11-04T12:10:35.178Z,81.01
2018-11-04T12:13:03.816Z,81.34
2018-11-04T12:15:32.599Z,81.36
2018-11-04T12:18:01.148Z,81.19
2018-11-04T12:20:29.919Z,80.76
2018-11-04T12:22:58.376Z,81.11
2018-11-04T12:25:27.105Z,80.67
2018-11-04T12:27:55.645Z,80.58
2018-11-04T12:30:24.356Z,80.57
2018-11-04T12:32:52.955Z,81.16
2018-11-04T12:35:21.603Z,80.51
2018-11-04T12:37:50.470Z,80.35
2018-11-04T12:40:18.991Z,80.15
2018-11-04T12:42:47.747Z,81.29
2018-11-04T12:45:16.230Z,81.40
2018-11-04T12:47:44.828Z,80.92
2018-11-04T12:50:13.674Z,80.54
2018-11-04T12:52:42.321Z,80.80
2018-11-04T12:55:11.061Z,81.03
2018-11-04T12:57:39.644Z,80.46
2018-11-04T13:00:11.038Z,80.56
2018-11-04T13:02:39.534Z,80.24
2018-11-04T13:05:09.562Z,80.86
2018-11-04T13:07:38.042Z,80.01
2018-11-04T13:10:09.008Z,79.52
2018-11-04T13:12:37.874Z,79.59
2018-11-04T13:15:07.175Z,80.02
2018-11-04T13:17:35.783Z,80.23
2018-11-04T13:20:04.732Z,79.49
2018-11-04T13:22:33.295Z,80.56
2018-11-04T13:25:02.251Z,80.88
2018-11-04T13:27:30.776Z,80.00
2018-11-04T13:29:59.359Z,79.08
2018-11-04T13:32:28.407Z,78.57
2018-11-04T13:34:57.004Z,78.95
2018-11-04T13:37:25.754Z,78.12
2018-11-04T13:39:54.241Z,79.17
2018-11-04T13:42:23.151Z,78.38
2018-11-04T13:44:51.650Z,79.38
2018-11-04T13:47:20.369Z,80.00
2018-11-04T13:49:48.922Z,79.65
2018-11-04T13:52:18.299Z,80.16
2018-11-04T13:54:47.380Z,79.44
2018-11-04T13:57:16.192Z,79.76
2018-11-04T13:59:44.869Z,79.99
2018-11-04T14:02:13.367Z,79.97
2018-11-04T14:04:42.002Z,78.81
2018-11-04T14:07:10.746Z,79.65
2018-11-04T14:09:39.544Z,80.16
2018-11-04T14:12:08.178Z,80.67
2018-11-04T14:14:36.699Z,80.71
2018-11-04T14:17:05.510Z,80.59
2018-11-04T14:19:34.069Z,80.45
2018-11-04T14:22:02.867Z,81.59
2018-11-04T14:24:31.428Z,81.62
2018-11-04T14:27:00.166Z,81.20
2018-11-04T14:29:28.623Z,81.56
2018-11-04T14:31:57.204Z,81.64
2018-11-04T14:34:25.833Z,81.91
2018-11-04T14:36:54.308Z,82.12
2018-11-04T14:39:23.114Z,81.63
2018-11-04T14:41:51.606Z,81.77
2018-11-04T14:44:20.489Z,82.04
2018-11-04T14:49:24.000Z,82.35
2018-11-04T14:51:52.521Z,82.62
2018-11-04T14:54:21.267Z,82.30
2018-11-04T14:56:49.813Z,82.62
2018-11-04T14:59:18.818Z,82.57
2018-11-04T15:01:47.581Z,82.80
2018-11-04T15:04:16.320Z,82.64
2018-11-04T15:06:44.897Z,82.99
2018-11-04T15:09:13.527Z,82.71
2018-11-04T15:11:42.103Z,82.79
2018-11-04T15:14:10.707Z,83.13
2018-11-04T15:16:39.679Z,83.44
2018-11-04T15:19:08.215Z,83.06
2018-11-04T15:21:36.958Z,83.33
2018-11-04T15:24:05.694Z,83.61
2018-11-04T15:26:34.303Z,83.48
2018-11-04T15:29:02.796Z,83.55
2018-11-04T15:31:31.308Z,84.19
2018-11-04T15:34:00.149Z,84.29
2018-11-04T15:36:28.623Z,84.58
2018-11-04T15:38:57.733Z,84.69
2018-11-04T15:41:26.171Z,84.85
2018-11-04T15:43:55.093Z,85.06
2018-11-04T15:46:23.571Z,84.65
2018-11-04T15:48:52.188Z,85.18
2018-11-04T15:51:20.827Z,85.50
2018-11-04T15:53:49.387Z,85.63
2018-11-04T15:56:18.494Z,85.56
2018-11-04T15:58:47.022Z,86.01
2018-11-04T16:01:15.958Z,86.08
2018-11-04T16:03:44.439Z,85.57
2018-11-04T16:06:13.126Z,85.64
2018-11-04T16:08:41.826Z,86.12
2018-11-04T16:11:10.352Z,85.75
2018-11-04T16:13:39.225Z,85.89
2018-11-04T16:16:07.810Z,85.78
2018-11-04T16:18:36.727Z,85.74
2018-11-04T16:21:05.392Z,85.68
2018-11-04T16:23:34.211Z,86.21
2018-11-04T16:26:02.797Z,86.38
2018-11-04T16:28:31.380Z,86.00
2018-11-04T16:30:59.895Z,86.29
2018-11-04T16:33:28.574Z,86.28
2018-11-04T16:35:58.910Z,86.25
2018-11-04T16:38:27.482Z,86.36
2018-11-04T16:40:56.299Z,86.43
2018-11-04T16:43:24.947Z,86.31
2018-11-04T16:45:53.512Z,86.70
2018-11-04T16:48:22.037Z,86.62
2018-11-04T16:50:50.644Z,87.06
2018-11-04T16:53:19.185Z,86.44
2018-11-04T16:55:47.768Z,86.41
2018-11-04T16:58:16.694Z,86.44
2018-11-04T17:00:45.194Z,86.49
2018-11-04T17:03:13.904Z,86.80
2018-11-04T17:05:42.620Z,86.46
2018-11-04T17:08:11.035Z,86.50
2018-11-04T17:10:39.624Z,86.17
2018-11-04T17:13:08.095Z,86.81
2018-11-04T17:15:36.949Z,86.85
2018-11-04T17:18:05.819Z,86.53
2018-11-04T17:20:34.479Z,86.57
2018-11-04T17:23:02.979Z,86.68
2018-11-04T17:25:31.755Z,86.69
2018-11-04T17:28:01.127Z,86.82
2018-11-04T17:30:29.787Z,86.77
2018-11-04T17:32:58.352Z,86.70
2018-11-04T17:35:26.976Z,86.64
2018-11-04T17:37:55.703Z,87.19
2018-11-04T17:40:24.257Z,87.02
2018-11-04T17:42:52.963Z,87.02
2018-11-04T17:45:21.476Z,86.72
2018-11-04T17:47:50.182Z,86.94
2018-11-04T17:50:19.709Z,86.74
2018-11-04T17:52:48.390Z,87.49
2018-11-04T17:55:17.225Z,87.49
2018-11-04T17:57:45.963Z,87.22
2018-11-04T18:00:16.099Z,87.30
2018-11-04T18:02:44.779Z,87.05
2018-11-04T18:05:14.030Z,87.13
2018-11-04T18:07:43.200Z,86.66
2018-11-04T18:10:13.035Z,86.77
2018-11-04T18:12:41.675Z,86.73
2018-11-04T18:15:11.738Z,87.04
2018-11-04T18:17:40.323Z,86.90
2018-11-04T18:20:10.183Z,86.38
2018-11-04T18:22:39.139Z,86.44
2018-11-04T18:27:46.939Z,86.55
2018-11-04T18:30:18.573Z,86.41
2018-11-04T18:32:47.894Z,85.87
2018-11-04T18:35:20.632Z,86.56
2018-11-04T18:37:49.312Z,86.33
2018-11-04T18:40:20.692Z,86.27
2018-11-04T18:42:49.643Z,85.94
2018-11-04T18:45:25.200Z,85.78
2018-11-04T18:48:01.017Z,86.06
2018-11-04T18:50:37.554Z,86.02
2018-11-04T18:53:09.919Z,86.15
2018-11-04T18:55:44.563Z,86.29
2018-11-04T18:58:18.315Z,86.36
2018-11-04T19:00:46.902Z,85.81
2018-11-04T19:03:15.475Z,85.98
2018-11-04T19:05:48.175Z,86.25
2018-11-04T19:08:17.104Z,86.24
2018-11-04T19:10:45.891Z,86.10
2018-11-04T19:13:15.198Z,86.05
2018-11-04T19:15:45.834Z,85.92
2018-11-04T19:18:15.929Z,85.73
2018-11-04T19:20:44.524Z,85.85
2018-11-04T19:23:13.347Z,86.06
2018-11-04T19:25:41.999Z,86.25
2018-11-04T19:28:10.976Z,86.11
2018-11-04T19:30:39.611Z,85.60
2018-11-04T19:33:08.956Z,86.30
2018-11-04T19:35:37.543Z,86.46
2018-11-04T19:38:06.683Z,85.94
2018-11-04T19:40:35.440Z,86.14
2018-11-04T19:43:04.189Z,86.29
2018-11-04T19:45:32.774Z,86.28
2018-11-04T19:48:01.381Z,86.25
2018-11-04T19:50:30.319Z,86.20
2018-11-04T19:52:58.968Z,86.05
2018-11-04T19:55:28.285Z,86.34
2018-11-04T19:57:58.063Z,86.38
2018-11-04T20:00:26.780Z,86.25
2018-11-04T20:02:55.351Z,86.30
2018-11-04T20:05:24.033Z,86.03
2018-11-04T20:07:52.605Z,86.57
2018-11-04T20:10:21.387Z,86.21
2018-11-04T20:12:55.464Z,86.06
2018-11-04T20:15:24.543Z,86.25
2018-11-04T20:17:53.062Z,86.00
2018-11-04T20:20:25.179Z,86.30
2018-11-04T20:22:53.987Z,86.14
2018-11-04T20:25:27.962Z,86.38
2018-11-04T20:27:56.622Z,86.31
2018-11-04T20:30:25.239Z,85.99
2018-11-04T20:32:59.152Z,86.33
2018-11-04T20:35:27.650Z,86.04
2018-11-04T20:37:56.536Z,86.30
2018-11-04T20:40:30.472Z,86.36
2018-11-04T20:42:59.342Z,86.24
2018-11-04T20:45:27.906Z,86.04
2018-11-04T20:48:01.892Z,86.07
2018-11-04T20:50:35.787Z,86.10
2018-11-04T20:53:04.680Z,86.14
2018-11-04T20:55:38.645Z,85.97
2018-11-04T20:58:07.489Z,86.18
2018-11-04T21:00:35.943Z,85.95
2018-11-04T21:03:04.743Z,86.10
2018-11-04T21:05:33.318Z,85.84
2018-11-04T21:08:02.110Z,85.64
2018-11-04T21:10:30.595Z,85.29
2018-11-04T21:12:59.111Z,85.78
2018-11-04T21:15:27.707Z,85.70
2018-11-04T21:17:56.199Z,85.31
2018-11-04T21:20:24.981Z,85.42
2018-11-04T21:22:53.513Z,85.75
2018-11-04T21:25:22.313Z,85.50
2018-11-04T21:27:50.874Z,86.07
2018-11-04T21:30:19.449Z,86.28
2018-11-04T21:32:48.158Z,85.92
2018-11-04T21:35:16.671Z,86.19
2018-11-04T21:37:45.315Z,86.39
2018-11-04T21:40:13.752Z,86.06
2018-11-04T21:42:42.873Z,86.23
2018-11-04T21:45:12.751Z,85.44
2018-11-04T21:47:41.659Z,85.95
2018-11-04T21:50:11.002Z,85.78
2018-11-04T21:52:39.898Z,85.77
2018-11-04T21:55:10.355Z,85.83
2018-11-04T21:57:39.472Z,85.59
2018-11-04T22:00:10.210Z,85.76
2018-11-04T22:02:39.223Z,85.27
2018-11-04T22:05:08.280Z,85.89
2018-11-04T22:07:37.114Z,85.31
2018-11-04T22:10:07.908Z,85.51
2018-11-04T22:12:36.691Z,85.39
2018-11-04T22:15:05.243Z,85.53
2018-11-04T22:17:33.989Z,85.44
2018-11-04T22:20:02.544Z,85.26
2018-11-04T22:22:31.063Z,85.44
2018-11-04T22:24:59.652Z,85.34
2018-11-04T22:27:28.162Z,85.36
2018-11-04T22:29:56.899Z,85.41
2018-11-04T22:32:25.491Z,85.40
2018-11-04T22:34:54.231Z,85.33
2018-11-04T22:37:22.883Z,85.37
2018-11-04T22:39:51.526Z,85.38
2018-11-04T22:42:20.112Z,85.21
2018-11-04T22:44:48.607Z,85.31
2018-11-04T22:47:17.304Z,85.41
2018-11-04T22:49:45.787Z,85.33
2018-11-04T22:52:14.731Z,85.47
2018-11-04T22:54:43.270Z,85.21
2018-11-04T22:57:11.787Z,84.95
2018-11-04T22:59:40.259Z,85.27
2018-11-04T23:02:08.898Z,85.48
2018-11-04T23:04:42.711Z,84.87
2018-11-04T23:07:11.480Z,85.19
2018-11-04T23:09:40.032Z,85.38
2018-11-04T23:12:08.618Z,85.52
2018-11-04T23:14:37.156Z,85.08
2018-11-04T23:17:05.655Z,85.28
2018-11-04T23:19:34.629Z,85.35
2018-11-04T23:22:03.212Z,85.12
2018-11-04T23:24:31.982Z,85.21
2018-11-04T23:27:00.557Z,85.38
2018-11-04T23:29:29.180Z,85.26
2018-11-04T23:31:57.743Z,85.32
2018-11-04T23:34:26.275Z,85.11
2018-11-04T23:36:55.103Z,85.37
2018-11-04T23:39:23.639Z,85.62
2018-11-04T23:41:52.619Z,85.51
2018-11-04T23:44:21.135Z,85.22
2018-11-04T23:46:49.681Z,85.24
2018-11-04T23:49:18.174Z,84.92
2018-11-04T23:51:46.850Z,85.43
2018-11-04T23:54:15.444Z,85.36
2018-11-04T23:56:43.986Z,85.40
2018-11-04T23:59:12.678Z,85.69
